sensor_id;sensor_type;location;lat;lon;timestamp;pressure;altitude;pressure_sealevel;temperature;humidity
61528;BME280;47395;42.032;-8.634;2022-08-19T00:00:38;101227.00;;;21.85;42.62
61528;BME280;47395;42.032;-8.634;2022-08-19T00:02:40;101229.25;;;21.80;43.86
61528;BME280;47395;42.032;-8.634;2022-08-19T00:04:41;101221.84;;;21.72;42.21
61528;BME280;47395;42.032;-8.634;2022-08-19T00:06:43;101216.38;;;21.73;44.10
61528;BME280;47395;42.032;-8.634;2022-08-19T00:08:45;101216.78;;;21.69;43.85
61528;BME280;47395;42.032;-8.634;2022-08-19T00:10:45;101214.91;;;21.69;43.85
61528;BME280;47395;42.032;-8.634;2022-08-19T00:12:51;101226.13;;;21.74;43.98
61528;BME280;47395;42.032;-8.634;2022-08-19T00:14:52;101205.44;;;21.65;43.68
61528;BME280;47395;42.032;-8.634;2022-08-19T00:16:54;101226.38;;;21.71;43.81
61528;BME280;47395;42.032;-8.634;2022-08-19T00:18:55;101209.53;;;21.59;44.60
61528;BME280;47395;42.032;-8.634;2022-08-19T00:20:56;101214.91;;;21.69;45.71
61528;BME280;47395;42.032;-8.634;2022-08-19T00:22:57;101208.84;;;21.67;44.86
61528;BME280;47395;42.032;-8.634;2022-08-19T00:24:58;101217.28;;;21.62;44.70
61528;BME280;47395;42.032;-8.634;2022-08-19T00:26:59;101221.09;;;21.60;44.97
61528;BME280;47395;42.032;-8.634;2022-08-19T00:29:03;101226.75;;;21.57;44.83
61528;BME280;47395;42.032;-8.634;2022-08-19T00:31:06;101206.13;;;21.57;44.71
61528;BME280;47395;42.032;-8.634;2022-08-19T00:33:07;101230.25;;;21.57;44.36
61528;BME280;47395;42.032;-8.634;2022-08-19T00:35:09;101215.75;;;21.60;44.86
61528;BME280;47395;42.032;-8.634;2022-08-19T00:37:10;101202.19;;;21.61;45.19
61528;BME280;47395;42.032;-8.634;2022-08-19T00:39:12;101208.81;;;21.57;43.84
61528;BME280;47395;42.032;-8.634;2022-08-19T00:41:15;101215.03;;;21.58;44.13
61528;BME280;47395;42.032;-8.634;2022-08-19T00:43:23;101206.13;;;21.57;45.46
61528;BME280;47395;42.032;-8.634;2022-08-19T00:45:26;101193.59;;;21.58;44.03
61528;BME280;47395;42.032;-8.634;2022-08-19T00:47:28;101208.00;;;21.57;44.21
61528;BME280;47395;42.032;-8.634;2022-08-19T00:49:36;101204.72;;;21.53;44.57
61528;BME280;47395;42.032;-8.634;2022-08-19T00:51:38;101207.53;;;21.51;43.55
61528;BME280;47395;42.032;-8.634;2022-08-19T00:53:39;101199.63;;;21.50;43.38
61528;BME280;47395;42.032;-8.634;2022-08-19T00:55:42;101199.22;;;21.55;44.11
61528;BME280;47395;42.032;-8.634;2022-08-19T00:57:54;101203.88;;;21.52;44.58
61528;BME280;47395;42.032;-8.634;2022-08-19T00:59:57;101198.53;;;21.52;44.29
61528;BME280;47395;42.032;-8.634;2022-08-19T01:02:00;101213.81;;;21.41;45.58
61528;BME280;47395;42.032;-8.634;2022-08-19T01:04:01;101192.84;;;21.46;44.73
61528;BME280;47395;42.032;-8.634;2022-08-19T01:06:02;101204.19;;;21.59;45.26
61528;BME280;47395;42.032;-8.634;2022-08-19T01:08:05;101197.69;;;21.62;45.62
61528;BME280;47395;42.032;-8.634;2022-08-19T01:10:09;101192.88;;;21.56;45.91
61528;BME280;47395;42.032;-8.634;2022-08-19T01:12:11;101196.13;;;21.59;45.42
61528;BME280;47395;42.032;-8.634;2022-08-19T01:14:12;101197.25;;;21.57;44.95
61528;BME280;47395;42.032;-8.634;2022-08-19T01:16:14;101188.50;;;21.55;45.01
61528;BME280;47395;42.032;-8.634;2022-08-19T01:18:16;101192.03;;;21.55;45.79
61528;BME280;47395;42.032;-8.634;2022-08-19T01:20:22;101197.47;;;21.44;44.72
61528;BME280;47395;42.032;-8.634;2022-08-19T01:22:37;101203.69;;;21.44;44.93
61528;BME280;47395;42.032;-8.634;2022-08-19T01:24:42;101200.91;;;21.46;45.61
61528;BME280;47395;42.032;-8.634;2022-08-19T01:26:44;101189.44;;;21.44;45.90
61528;BME280;47395;42.032;-8.634;2022-08-19T01:28:48;101190.16;;;21.46;45.61
61528;BME280;47395;42.032;-8.634;2022-08-19T01:30:49;101195.34;;;21.37;46.00
61528;BME280;47395;42.032;-8.634;2022-08-19T01:32:51;101184.75;;;21.36;45.79
61528;BME280;47395;42.032;-8.634;2022-08-19T01:34:51;101195.47;;;21.36;46.36
61528;BME280;47395;42.032;-8.634;2022-08-19T01:36:52;101190.38;;;21.33;45.69
61528;BME280;47395;42.032;-8.634;2022-08-19T01:38:54;101194.91;;;21.32;45.75
61528;BME280;47395;42.032;-8.634;2022-08-19T01:40:55;101203.53;;;21.36;46.64
61528;BME280;47395;42.032;-8.634;2022-08-19T01:42:56;101191.81;;;21.37;46.95
61528;BME280;47395;42.032;-8.634;2022-08-19T01:44:57;101206.47;;;21.33;45.64
61528;BME280;47395;42.032;-8.634;2022-08-19T01:46:57;101195.75;;;21.33;47.35
61528;BME280;47395;42.032;-8.634;2022-08-19T01:48:58;101203.09;;;21.31;46.20
61528;BME280;47395;42.032;-8.634;2022-08-19T01:51:00;101196.72;;;21.32;47.10
61528;BME280;47395;42.032;-8.634;2022-08-19T01:53:02;101202.34;;;21.29;46.85
61528;BME280;47395;42.032;-8.634;2022-08-19T01:55:06;101194.41;;;21.17;46.16
61528;BME280;47395;42.032;-8.634;2022-08-19T01:57:10;101193.00;;;21.13;46.55
61528;BME280;47395;42.032;-8.634;2022-08-19T01:59:16;101177.03;;;21.11;46.49
61528;BME280;47395;42.032;-8.634;2022-08-19T02:01:19;101190.63;;;21.20;47.59
61528;BME280;47395;42.032;-8.634;2022-08-19T02:03:20;101193.00;;;21.13;46.95
61528;BME280;47395;42.032;-8.634;2022-08-19T02:05:20;101184.94;;;21.13;46.75
61528;BME280;47395;42.032;-8.634;2022-08-19T02:07:22;101180.28;;;21.15;47.78
61528;BME280;47395;42.032;-8.634;2022-08-19T02:09:22;101182.28;;;21.13;47.97
61528;BME280;47395;42.032;-8.634;2022-08-19T02:11:27;101173.94;;;21.16;48.61
61528;BME280;47395;42.032;-8.634;2022-08-19T02:13:28;101177.09;;;21.21;48.88
61528;BME280;47395;42.032;-8.634;2022-08-19T02:15:29;101165.13;;;21.25;48.03
61528;BME280;47395;42.032;-8.634;2022-08-19T02:17:30;101170.00;;;21.10;47.46
61528;BME280;47395;42.032;-8.634;2022-08-19T02:19:32;101169.69;;;21.04;48.11
61528;BME280;47395;42.032;-8.634;2022-08-19T02:21:33;101179.41;;;21.05;48.10
61528;BME280;47395;42.032;-8.634;2022-08-19T02:23:34;101165.69;;;20.98;48.92
61528;BME280;47395;42.032;-8.634;2022-08-19T02:25:35;101169.53;;;21.05;48.98
61528;BME280;47395;42.032;-8.634;2022-08-19T02:27:37;101175.88;;;21.04;48.98
61528;BME280;47395;42.032;-8.634;2022-08-19T02:29:37;101170.25;;;21.07;49.58
61528;BME280;47395;42.032;-8.634;2022-08-19T02:31:38;101180.09;;;21.07;48.90
61528;BME280;47395;42.032;-8.634;2022-08-19T02:33:39;101169.94;;;21.00;49.55
61528;BME280;47395;42.032;-8.634;2022-08-19T02:35:45;101174.31;;;21.02;49.14
61528;BME280;47395;42.032;-8.634;2022-08-19T02:37:46;101164.44;;;21.02;49.57
61528;BME280;47395;42.032;-8.634;2022-08-19T02:40:06;101171.38;;;21.05;49.30
61528;BME280;47395;42.032;-8.634;2022-08-19T02:42:07;101160.78;;;21.03;49.06
61528;BME280;47395;42.032;-8.634;2022-08-19T02:44:08;101175.28;;;21.00;49.09
61528;BME280;47395;42.032;-8.634;2022-08-19T02:46:14;101169.94;;;21.00;49.16
61528;BME280;47395;42.032;-8.634;2022-08-19T02:48:20;101175.09;;;20.92;48.98
61528;BME280;47395;42.032;-8.634;2022-08-19T02:50:21;101186.94;;;20.90;49.10
61528;BME280;47395;42.032;-8.634;2022-08-19T02:52:22;101177.97;;;21.00;49.40
61528;BME280;47395;42.032;-8.634;2022-08-19T02:54:23;101175.69;;;20.96;48.90
61528;BME280;47395;42.032;-8.634;2022-08-19T02:56:24;101166.38;;;20.90;49.02
61528;BME280;47395;42.032;-8.634;2022-08-19T02:58:27;101159.44;;;20.88;49.43
61528;BME280;47395;42.032;-8.634;2022-08-19T03:00:28;101170.00;;;20.89;48.49
61528;BME280;47395;42.032;-8.634;2022-08-19T03:02:29;101171.88;;;20.77;49.22
61528;BME280;47395;42.032;-8.634;2022-08-19T03:04:31;101174.44;;;20.79;48.97
61528;BME280;47395;42.032;-8.634;2022-08-19T03:06:32;101165.09;;;20.73;50.01
61528;BME280;47395;42.032;-8.634;2022-08-19T03:08:37;101170.88;;;20.78;49.75
61528;BME280;47395;42.032;-8.634;2022-08-19T03:10:46;101165.53;;;20.78;49.84
61528;BME280;47395;42.032;-8.634;2022-08-19T03:12:47;101171.38;;;20.83;49.26
61528;BME280;47395;42.032;-8.634;2022-08-19T03:14:48;101164.28;;;20.82;49.53
61528;BME280;47395;42.032;-8.634;2022-08-19T03:16:50;101160.78;;;20.82;49.63
61528;BME280;47395;42.032;-8.634;2022-08-19T03:18:53;101179.53;;;20.82;49.67
61528;BME280;47395;42.032;-8.634;2022-08-19T03:20:55;101171.09;;;20.86;49.47
61528;BME280;47395;42.032;-8.634;2022-08-19T03:22:56;101166.97;;;20.82;49.46
61528;BME280;47395;42.032;-8.634;2022-08-19T03:24:58;101157.00;;;20.84;50.33
61528;BME280;47395;42.032;-8.634;2022-08-19T03:26:59;101172.06;;;20.85;50.21
61528;BME280;47395;42.032;-8.634;2022-08-19T03:29:04;101162.59;;;20.81;49.97
61528;BME280;47395;42.032;-8.634;2022-08-19T03:31:11;101172.31;;;20.82;50.11
61528;BME280;47395;42.032;-8.634;2022-08-19T03:33:12;101172.31;;;20.82;50.25
61528;BME280;47395;42.032;-8.634;2022-08-19T03:35:13;101183.94;;;20.71;49.88
61528;BME280;47395;42.032;-8.634;2022-08-19T03:37:14;101182.00;;;20.73;50.19
61528;BME280;47395;42.032;-8.634;2022-08-19T03:39:16;101182.84;;;20.74;49.93
61528;BME280;47395;42.032;-8.634;2022-08-19T03:41:20;101174.81;;;20.74;50.51
61528;BME280;47395;42.032;-8.634;2022-08-19T03:43:21;101186.13;;;20.78;50.24
61528;BME280;47395;42.032;-8.634;2022-08-19T03:45:23;101184.75;;;20.83;49.37
61528;BME280;47395;42.032;-8.634;2022-08-19T03:47:23;101184.88;;;20.82;48.72
61528;BME280;47395;42.032;-8.634;2022-08-19T03:49:26;101192.78;;;20.83;49.18
61528;BME280;47395;42.032;-8.634;2022-08-19T03:51:33;101190.13;;;20.83;49.83
61528;BME280;47395;42.032;-8.634;2022-08-19T03:53:35;101178.91;;;20.78;50.06
61528;BME280;47395;42.032;-8.634;2022-08-19T03:55:40;101169.44;;;20.74;50.80
61528;BME280;47395;42.032;-8.634;2022-08-19T03:57:41;101179.22;;;20.75;50.15
61528;BME280;47395;42.032;-8.634;2022-08-19T03:59:42;101183.00;;;20.72;51.01
61528;BME280;47395;42.032;-8.634;2022-08-19T04:03:56;101168.22;;;20.57;50.46
61528;BME280;47395;42.032;-8.634;2022-08-19T04:05:58;101195.25;;;20.54;50.66
61528;BME280;47395;42.032;-8.634;2022-08-19T04:08:01;101171.34;;;20.41;50.98
61528;BME280;47395;42.032;-8.634;2022-08-19T04:10:03;101179.91;;;20.34;51.61
61528;BME280;47395;42.032;-8.634;2022-08-19T04:12:04;101191.69;;;20.32;51.73
61528;BME280;47395;42.032;-8.634;2022-08-19T04:14:06;101183.66;;;20.32;52.35
61528;BME280;47395;42.032;-8.634;2022-08-19T04:16:08;101178.47;;;20.30;51.98
61528;BME280;47395;42.032;-8.634;2022-08-19T04:18:10;101189.72;;;20.13;51.96
61528;BME280;47395;42.032;-8.634;2022-08-19T04:20:11;101195.66;;;20.16;52.38
61528;BME280;47395;42.032;-8.634;2022-08-19T04:22:12;101180.94;;;20.11;52.90
61528;BME280;47395;42.032;-8.634;2022-08-19T04:24:14;101194.41;;;20.20;52.56
61528;BME280;47395;42.032;-8.634;2022-08-19T04:26:17;101180.72;;;20.02;52.97
61528;BME280;47395;42.032;-8.634;2022-08-19T04:28:19;101189.59;;;19.91;52.35
61528;BME280;47395;42.032;-8.634;2022-08-19T04:30:20;101188.75;;;19.91;53.02
61528;BME280;47395;42.032;-8.634;2022-08-19T04:32:23;101202.72;;;20.06;53.18
61528;BME280;47395;42.032;-8.634;2022-08-19T04:34:26;101201.25;;;19.90;52.22
61528;BME280;47395;42.032;-8.634;2022-08-19T04:36:32;101202.13;;;19.91;52.09
61528;BME280;47395;42.032;-8.634;2022-08-19T04:38:33;101186.34;;;19.99;52.77
61528;BME280;47395;42.032;-8.634;2022-08-19T04:40:39;101190.94;;;20.08;52.92
61528;BME280;47395;42.032;-8.634;2022-08-19T04:42:59;101194.09;;;19.91;53.43
61528;BME280;47395;42.032;-8.634;2022-08-19T04:45:02;101208.19;;;19.93;52.84
61528;BME280;47395;42.032;-8.634;2022-08-19T04:47:07;101213.28;;;19.96;53.01
61528;BME280;47395;42.032;-8.634;2022-08-19T04:49:09;101208.81;;;19.96;53.04
61528;BME280;47395;42.032;-8.634;2022-08-19T04:51:11;101201.16;;;19.92;53.97
61528;BME280;47395;42.032;-8.634;2022-08-19T04:53:16;101200.06;;;19.83;52.77
61528;BME280;47395;42.032;-8.634;2022-08-19T04:55:17;101214.28;;;19.83;53.16
61528;BME280;47395;42.032;-8.634;2022-08-19T04:57:21;101206.25;;;19.83;54.48
61528;BME280;47395;42.032;-8.634;2022-08-19T04:59:22;101197.53;;;19.81;53.16
61528;BME280;47395;42.032;-8.634;2022-08-19T05:01:27;101184.44;;;19.55;54.11
61528;BME280;47395;42.032;-8.634;2022-08-19T05:03:32;101208.94;;;19.83;54.08
61528;BME280;47395;42.032;-8.634;2022-08-19T05:05:38;101205.69;;;19.57;54.83
61528;BME280;47395;42.032;-8.634;2022-08-19T05:07:39;101201.31;;;19.44;54.76
61528;BME280;47395;42.032;-8.634;2022-08-19T05:09:41;101221.00;;;19.43;55.20
61528;BME280;47395;42.032;-8.634;2022-08-19T05:11:43;101201.78;;;19.15;55.27
61528;BME280;47395;42.032;-8.634;2022-08-19T05:13:48;101211.75;;;19.25;55.20
61528;BME280;47395;42.032;-8.634;2022-08-19T05:15:57;101204.00;;;19.22;55.60
61528;BME280;47395;42.032;-8.634;2022-08-19T05:17:58;101218.09;;;19.35;55.40
61528;BME280;47395;42.032;-8.634;2022-08-19T05:20:17;101224.75;;;19.41;55.81
61528;BME280;47395;42.032;-8.634;2022-08-19T05:22:37;101207.03;;;19.28;55.67
61528;BME280;47395;42.032;-8.634;2022-08-19T05:24:38;101225.97;;;19.37;55.66
61528;BME280;47395;42.032;-8.634;2022-08-19T05:26:42;101212.25;;;19.30;55.31
61528;BME280;47395;42.032;-8.634;2022-08-19T05:28:47;101212.50;;;19.27;54.96
61528;BME280;47395;42.032;-8.634;2022-08-19T05:30:48;101232.91;;;19.51;55.07
61528;BME280;47395;42.032;-8.634;2022-08-19T05:32:51;101211.28;;;19.54;55.47
61528;BME280;47395;42.032;-8.634;2022-08-19T05:34:52;101221.00;;;19.32;55.21
61528;BME280;47395;42.032;-8.634;2022-08-19T05:36:56;101216.03;;;19.50;55.09
61528;BME280;47395;42.032;-8.634;2022-08-19T05:38:58;101232.91;;;19.39;55.29
61528;BME280;47395;42.032;-8.634;2022-08-19T05:40:59;101235.69;;;19.38;55.14
61528;BME280;47395;42.032;-8.634;2022-08-19T05:43:00;101225.09;;;19.13;55.34
61528;BME280;47395;42.032;-8.634;2022-08-19T05:45:02;101228.19;;;18.96;55.64
61528;BME280;47395;42.032;-8.634;2022-08-19T05:47:06;101225.69;;;19.05;56.16
61528;BME280;47395;42.032;-8.634;2022-08-19T05:49:08;101248.75;;;19.18;55.39
61528;BME280;47395;42.032;-8.634;2022-08-19T05:51:10;101233.50;;;18.84;56.15
61528;BME280;47395;42.032;-8.634;2022-08-19T05:53:11;101224.28;;;18.88;57.18
61528;BME280;47395;42.032;-8.634;2022-08-19T05:55:12;101249.25;;;19.12;56.57
61528;BME280;47395;42.032;-8.634;2022-08-19T05:57:15;101228.00;;;19.10;55.83
61528;BME280;47395;42.032;-8.634;2022-08-19T05:59:17;101233.94;;;19.14;55.70
61528;BME280;47395;42.032;-8.634;2022-08-19T06:01:18;101246.34;;;19.26;56.00
61528;BME280;47395;42.032;-8.634;2022-08-19T06:03:19;101241.38;;;19.22;55.77
61528;BME280;47395;42.032;-8.634;2022-08-19T06:05:20;101237.97;;;19.08;55.40
61528;BME280;47395;42.032;-8.634;2022-08-19T06:07:21;101267.88;;;19.48;55.75
61528;BME280;47395;42.032;-8.634;2022-08-19T06:11:47;101270.81;;;19.44;55.39
61528;BME280;47395;42.032;-8.634;2022-08-19T06:13:51;101250.25;;;19.45;55.18
61528;BME280;47395;42.032;-8.634;2022-08-19T06:15:55;101246.97;;;19.41;55.02
61528;BME280;47395;42.032;-8.634;2022-08-19T06:17:56;101272.25;;;19.60;54.85
61528;BME280;47395;42.032;-8.634;2022-08-19T06:19:58;101261.31;;;19.63;54.43
61528;BME280;47395;42.032;-8.634;2022-08-19T06:22:00;101275.88;;;20.60;52.00
61528;BME280;47395;42.032;-8.634;2022-08-19T06:24:01;101262.53;;;21.15;51.11
61528;BME280;47395;42.032;-8.634;2022-08-19T06:26:03;101279.75;;;22.25;47.97
61528;BME280;47395;42.032;-8.634;2022-08-19T06:28:04;101287.31;;;22.91;45.50
61528;BME280;47395;42.032;-8.634;2022-08-19T06:30:06;101264.97;;;22.80;45.70
61528;BME280;47395;42.032;-8.634;2022-08-19T06:32:07;101269.56;;;23.38;44.15
61528;BME280;47395;42.032;-8.634;2022-08-19T06:34:09;101268.22;;;24.18;42.53
61528;BME280;47395;42.032;-8.634;2022-08-19T06:36:41;101274.84;;;24.78;41.36
61528;BME280;47395;42.032;-8.634;2022-08-19T06:38:43;101275.16;;;24.93;40.46
61528;BME280;47395;42.032;-8.634;2022-08-19T06:40:44;101289.56;;;25.28;39.80
61528;BME280;47395;42.032;-8.634;2022-08-19T06:42:45;101294.00;;;25.38;39.65
61528;BME280;47395;42.032;-8.634;2022-08-19T06:44:47;101278.53;;;25.75;38.71
61528;BME280;47395;42.032;-8.634;2022-08-19T06:46:49;101283.16;;;26.42;37.78
61528;BME280;47395;42.032;-8.634;2022-08-19T06:48:50;101276.28;;;26.05;37.68
61528;BME280;47395;42.032;-8.634;2022-08-19T06:50:54;101277.78;;;25.99;38.30
61528;BME280;47395;42.032;-8.634;2022-08-19T06:52:55;101284.34;;;27.31;35.73
61528;BME280;47395;42.032;-8.634;2022-08-19T06:54:56;101305.75;;;27.49;35.15
61528;BME280;47395;42.032;-8.634;2022-08-19T06:56:58;101291.16;;;27.59;34.81
61528;BME280;47395;42.032;-8.634;2022-08-19T06:59:09;101291.56;;;27.96;34.20
61528;BME280;47395;42.032;-8.634;2022-08-19T07:01:11;101321.22;;;28.52;33.36
61528;BME280;47395;42.032;-8.634;2022-08-19T07:03:12;101314.63;;;28.70;32.70
61528;BME280;47395;42.032;-8.634;2022-08-19T07:05:12;101308.66;;;29.67;31.48
61528;BME280;47395;42.032;-8.634;2022-08-19T07:07:14;101305.63;;;30.44;30.54
61528;BME280;47395;42.032;-8.634;2022-08-19T07:09:17;101307.00;;;31.05;29.21
61528;BME280;47395;42.032;-8.634;2022-08-19T07:11:18;101310.31;;;31.58;28.27
61528;BME280;47395;42.032;-8.634;2022-08-19T07:13:20;101314.06;;;31.99;27.69
61528;BME280;47395;42.032;-8.634;2022-08-19T07:15:22;101324.63;;;32.29;27.35
61528;BME280;47395;42.032;-8.634;2022-08-19T07:17:23;101322.44;;;32.73;26.70
61528;BME280;47395;42.032;-8.634;2022-08-19T07:19:26;101331.03;;;33.24;26.17
61528;BME280;47395;42.032;-8.634;2022-08-19T07:21:28;101320.69;;;33.60;25.42
61528;BME280;47395;42.032;-8.634;2022-08-19T07:23:29;101335.13;;;34.27;25.02
61528;BME280;47395;42.032;-8.634;2022-08-19T07:25:30;101342.38;;;34.46;24.21
61528;BME280;47395;42.032;-8.634;2022-08-19T07:27:31;101320.25;;;33.56;25.56
61528;BME280;47395;42.032;-8.634;2022-08-19T07:29:34;101321.47;;;34.27;24.71
61528;BME280;47395;42.032;-8.634;2022-08-19T07:31:35;101333.72;;;34.17;24.90
61528;BME280;47395;42.032;-8.634;2022-08-19T07:33:37;101332.25;;;33.55;25.81
61528;BME280;47395;42.032;-8.634;2022-08-19T07:35:39;101326.00;;;33.14;25.69
61528;BME280;47395;42.032;-8.634;2022-08-19T07:37:40;101319.28;;;32.90;26.35
61528;BME280;47395;42.032;-8.634;2022-08-19T07:39:44;101316.78;;;32.95;26.45
61528;BME280;47395;42.032;-8.634;2022-08-19T07:41:45;101326.88;;;33.94;25.52
61528;BME280;47395;42.032;-8.634;2022-08-19T07:43:47;101327.38;;;34.23;24.84
61528;BME280;47395;42.032;-8.634;2022-08-19T07:45:48;101330.75;;;33.66;25.73
61528;BME280;47395;42.032;-8.634;2022-08-19T07:47:49;101331.91;;;33.18;25.84
61528;BME280;47395;42.032;-8.634;2022-08-19T07:49:50;101327.50;;;34.35;24.96
61528;BME280;47395;42.032;-8.634;2022-08-19T07:51:58;101319.66;;;34.46;24.45
61528;BME280;47395;42.032;-8.634;2022-08-19T07:53:59;101320.25;;;35.06;24.27
61528;BME280;47395;42.032;-8.634;2022-08-19T07:56:01;101317.44;;;35.12;23.65
61528;BME280;47395;42.032;-8.634;2022-08-19T07:58:07;101332.78;;;35.95;22.76
61528;BME280;47395;42.032;-8.634;2022-08-19T08:00:11;101328.41;;;36.06;22.59
61528;BME280;47395;42.032;-8.634;2022-08-19T08:02:15;101331.78;;;36.39;22.67
61528;BME280;47395;42.032;-8.634;2022-08-19T08:04:17;101350.50;;;36.73;21.62
61528;BME280;47395;42.032;-8.634;2022-08-19T08:06:37;101338.47;;;37.21;21.36
61528;BME280;47395;42.032;-8.634;2022-08-19T08:08:59;101336.13;;;38.07;20.81
61528;BME280;47395;42.032;-8.634;2022-08-19T08:11:13;101356.78;;;38.22;19.89
61528;BME280;47395;42.032;-8.634;2022-08-19T08:13:14;101350.34;;;38.33;20.38
61528;BME280;47395;42.032;-8.634;2022-08-19T08:15:16;101355.03;;;38.79;19.84
61528;BME280;47395;42.032;-8.634;2022-08-19T08:17:19;101352.03;;;39.37;19.37
61528;BME280;47395;42.032;-8.634;2022-08-19T08:19:22;101346.59;;;39.87;18.65
61528;BME280;47395;42.032;-8.634;2022-08-19T08:21:24;101352.00;;;40.27;18.38
61528;BME280;47395;42.032;-8.634;2022-08-19T08:23:25;101356.44;;;40.33;18.20
61528;BME280;47395;42.032;-8.634;2022-08-19T08:25:29;101348.63;;;40.85;17.63
61528;BME280;47395;42.032;-8.634;2022-08-19T08:27:34;101367.88;;;40.69;18.02
61528;BME280;47395;42.032;-8.634;2022-08-19T08:29:35;101371.78;;;41.65;16.83
61528;BME280;47395;42.032;-8.634;2022-08-19T08:31:37;101351.22;;;40.64;17.74
61528;BME280;47395;42.032;-8.634;2022-08-19T08:33:38;101360.63;;;41.44;17.05
61528;BME280;47395;42.032;-8.634;2022-08-19T08:35:40;101355.38;;;41.43;16.91
61528;BME280;47395;42.032;-8.634;2022-08-19T08:37:49;101357.59;;;42.25;16.42
61528;BME280;47395;42.032;-8.634;2022-08-19T08:39:50;101368.97;;;41.55;16.48
61528;BME280;47395;42.032;-8.634;2022-08-19T08:42:05;101365.69;;;41.63;17.28
61528;BME280;47395;42.032;-8.634;2022-08-19T08:44:14;101358.41;;;42.26;15.96
61528;BME280;47395;42.032;-8.634;2022-08-19T08:48:54;101370.97;;;41.70;16.41
61528;BME280;47395;42.032;-8.634;2022-08-19T08:50:58;101344.28;;;42.17;16.49
61528;BME280;47395;42.032;-8.634;2022-08-19T08:53:00;101351.78;;;41.47;16.88
61528;BME280;47395;42.032;-8.634;2022-08-19T08:55:11;101351.69;;;41.27;16.87
61528;BME280;47395;42.032;-8.634;2022-08-19T08:57:32;101357.00;;;42.28;15.95
61528;BME280;47395;42.032;-8.634;2022-08-19T08:59:38;101355.34;;;42.59;15.74
61528;BME280;47395;42.032;-8.634;2022-08-19T09:01:41;101363.66;;;42.90;15.63
61528;BME280;47395;42.032;-8.634;2022-08-19T09:03:42;101360.34;;;43.03;15.95
61528;BME280;47395;42.032;-8.634;2022-08-19T09:08:13;101361.53;;;43.63;15.62
61528;BME280;47395;42.032;-8.634;2022-08-19T09:15:03;101361.16;;;42.26;16.44
61528;BME280;47395;42.032;-8.634;2022-08-19T09:17:04;101344.00;;;42.55;16.36
61528;BME280;47395;42.032;-8.634;2022-08-19T09:19:08;101361.19;;;43.04;15.48
61528;BME280;47395;42.032;-8.634;2022-08-19T09:21:11;101347.06;;;42.74;15.68
61528;BME280;47395;42.032;-8.634;2022-08-19T09:23:12;101365.06;;;42.51;15.63
61528;BME280;47395;42.032;-8.634;2022-08-19T09:25:16;101356.88;;;43.43;15.31
61528;BME280;47395;42.032;-8.634;2022-08-19T09:27:21;101362.94;;;43.61;14.83
61528;BME280;47395;42.032;-8.634;2022-08-19T09:29:24;101349.03;;;44.16;14.85
61528;BME280;47395;42.032;-8.634;2022-08-19T09:31:27;101347.91;;;42.85;15.23
61528;BME280;47395;42.032;-8.634;2022-08-19T09:33:28;101353.69;;;43.76;15.22
61528;BME280;47395;42.032;-8.634;2022-08-19T09:35:30;101341.09;;;43.38;14.45
61528;BME280;47395;42.032;-8.634;2022-08-19T09:37:31;101344.56;;;42.47;15.61
61528;BME280;47395;42.032;-8.634;2022-08-19T09:39:31;101352.59;;;42.53;15.86
61528;BME280;47395;42.032;-8.634;2022-08-19T09:41:32;101345.19;;;41.54;16.50
61528;BME280;47395;42.032;-8.634;2022-08-19T09:43:33;101347.34;;;41.41;16.49
61528;BME280;47395;42.032;-8.634;2022-08-19T09:45:36;101338.53;;;41.49;16.54
61528;BME280;47395;42.032;-8.634;2022-08-19T09:47:37;101331.47;;;41.26;16.54
61528;BME280;47395;42.032;-8.634;2022-08-19T09:49:39;101323.25;;;42.73;15.62
61528;BME280;47395;42.032;-8.634;2022-08-19T09:51:41;101338.41;;;43.02;15.43
61528;BME280;47395;42.032;-8.634;2022-08-19T09:53:45;101335.31;;;43.29;15.26
61528;BME280;47395;42.032;-8.634;2022-08-19T09:55:46;101347.84;;;43.82;15.89
61528;BME280;47395;42.032;-8.634;2022-08-19T09:57:47;101333.94;;;43.88;15.18
61528;BME280;47395;42.032;-8.634;2022-08-19T09:59:48;101327.47;;;44.03;14.05
61528;BME280;47395;42.032;-8.634;2022-08-19T10:01:49;101339.94;;;44.75;14.05
61528;BME280;47395;42.032;-8.634;2022-08-19T10:03:53;101333.13;;;43.16;14.95
61528;BME280;47395;42.032;-8.634;2022-08-19T10:06:00;101343.97;;;43.78;15.40
61528;BME280;47395;42.032;-8.634;2022-08-19T10:08:01;101339.13;;;44.05;14.58
61528;BME280;47395;42.032;-8.634;2022-08-19T10:10:06;101333.78;;;42.71;15.65
61528;BME280;47395;42.032;-8.634;2022-08-19T10:12:08;101332.94;;;42.19;16.16
61528;BME280;47395;42.032;-8.634;2022-08-19T10:14:09;101332.06;;;42.13;16.12
61528;BME280;47395;42.032;-8.634;2022-08-19T10:16:14;101322.38;;;43.04;15.10
61528;BME280;47395;42.032;-8.634;2022-08-19T10:18:17;101327.84;;;43.25;15.26
61528;BME280;47395;42.032;-8.634;2022-08-19T10:20:18;101343.44;;;43.76;14.76
61528;BME280;47395;42.032;-8.634;2022-08-19T10:22:19;101339.25;;;43.13;15.05
61528;BME280;47395;42.032;-8.634;2022-08-19T10:24:20;101344.19;;;41.27;16.43
61528;BME280;47395;42.032;-8.634;2022-08-19T10:26:25;101343.84;;;41.72;16.27
61528;BME280;47395;42.032;-8.634;2022-08-19T10:28:26;101336.97;;;41.80;16.37
61528;BME280;47395;42.032;-8.634;2022-08-19T10:30:27;101333.00;;;41.49;17.30
61528;BME280;47395;42.032;-8.634;2022-08-19T10:32:28;101331.56;;;41.42;17.20
61528;BME280;47395;42.032;-8.634;2022-08-19T10:34:30;101326.72;;;41.11;17.06
61528;BME280;47395;42.032;-8.634;2022-08-19T10:36:34;101323.97;;;41.21;16.87
61528;BME280;47395;42.032;-8.634;2022-08-19T10:38:37;101332.75;;;41.56;16.84
61528;BME280;47395;42.032;-8.634;2022-08-19T10:40:38;101326.69;;;41.06;17.28
61528;BME280;47395;42.032;-8.634;2022-08-19T10:42:39;101331.38;;;41.05;17.22
61528;BME280;47395;42.032;-8.634;2022-08-19T10:44:43;101324.00;;;41.80;16.35
61528;BME280;47395;42.032;-8.634;2022-08-19T10:46:44;101325.22;;;41.41;16.81
61528;BME280;47395;42.032;-8.634;2022-08-19T10:48:48;101322.94;;;41.28;17.09